X  Zamknij Lotniskowe dane METAR     EHKD De Kooy Airport
Temperatura
61°F Temperatura
55°F Punkt rosy
83% Wilgotność



Wiatr
13 MPH
21 KM/H
6 M/S
11 KTS



50°
NE
Warunki bieżące

Zachmurzenie całkowite Zachmurzenie całkowite
Ciśnienie 1016.93 (hPa) - 30.03 (inHg)
Widoczność 6 (mil) - 9.7 (km)
Lotnisko
Kod lotniska EHKD

Położenie: De Kooy Airport
Odległość: 34 (mi)

Metar:
EHKD 202125Z AUTO 05011KT 9999 OVC110 16/13 Q1017 BLU

Czas: 20-06-2024 23:25 CEST